KLCI/LCI METAR and TAF weather

Enter ICAO airport designator
Station Type Date Time Source
KLCI METAR 2019/07/20 19:56 UTC NOAA

KLCI 201956Z AUTO VRB05KT 10SM CLR 34/21 A2975 RMK AO2 SLP069 T03390206


Station Type Date Time Source
KLCI Decoded METAR 2019/07/20 19:56 UTC NOAA

Laconia, Laconia Municipal Airport, NH, United States (KLCI) 43-34N 071-25W
Jul 20, 2019 - 03:56 PM EDT / 2019.07.20 1956 UTC
Wind: Variable at 6 MPH (5 KT):0
Visibility: 10 mile(s):0
Sky conditions: clear
Temperature: 93.0 F (33.9 C)
Heat index: 97.9 F (36.6 C):1
Dew Point: 69.1 F (20.6 C)
Relative Humidity: 45%
Pressure (altimeter): 29.75 in. Hg (1007 hPa)
ob: KLCI 201956Z AUTO VRB05KT 10SM CLR 34/21 A2975 RMK AO2 SLP069 T03390206
cycle: 20

Station Type Date Time Source
KLCI TAF UTC NOAA

Error!

Example: see airport list